Ksgf metar.

METAR KSGF 090752Z 20011KT 10SM CLR 10/03 A2988 RMK AO2 SLP113 T01000028. The wind is from direction 200° with a speed of 11 kt. Visibility is 10 mi. No ceiling has been observed. The temperature is 10 °C, with a wind chill of 6 °C.

Ksgf metar. Things To Know About Ksgf metar.

METAR KSGF 221210Z 16009KT 10SM UP OVC026 M02/M03 A3015 RMK AO2 UPB04FZRAB1156E04 P0000 I1000 T10171033. Current weather is unknown precipitation.The wind is from direction 160° with a speed of 9 kt. Visibility is 10 mi. The ceiling, broken or more, is 2,600 ft. The temperature is -2 °C, with a wind chill of -9 °C.METAR George M Bryan Airport - KSTF. George M Bryan Airport is a midsized airport in Mississippi, United States. The airport is located at latitude 33.43311 and longitude -88.84861. The airport has one runway: 18/36. The ICAO airport code of this field is KSTF. The local airport ID (FAA LID) of this airport is STF.METAR KSGF 201852Z 03004KT 10SM CLR M09/M18 A3057 RMK AO2 SLP377 T10941178. The wind is from direction 030° with a speed of 4 kt. Visibility is 10 mi. No ceiling has been observed. The temperature is -9 °C, with a wind chill of -15 °C.METAR KSGF 081852Z 23027G41KT 10SM FEW060 19/07 A2974 RMK AO2 PK WND 21041/1832 SLP067 T01940067. The wind is from direction 230° with a speed of 27 kt. Visibility is 10 mi. No ceiling has been observed. The temperature and wind chill are 19 °C.

METAR Stinson Municipal Airport - KSSF/SSF . Stinson Municipal Airport is a midsized airport in Texas, United States. The airport is located at latitude 29.33697 and longitude -98.47081. The airport has 2 runways: 9/27 and 14/32. The ICAO airport code of this field is KSSF. The local airport ID (FAA LID) of this airport is SSF. ...

METAR CYVR 041000Z 08005KT 15SM FEW090 BKN100 13/07 A2962 RMK AC2AC5 SLP031. The wind is from direction 080° with a speed of 5 kt. Visibility is 15 mi. The ceiling, broken or more, is 10,000 ft. The temperature and wind chill are 13 °C.METAR Davis Field (USAF Academy Field) - KAFF/AFF. Davis Field (USAF Academy Field) is a midsized airport in Colorado, United States. The airport is located at latitude 38.97339 and longitude -104.82003. The airport has 4 runways: 16C/34C, 16L/34R, 16R/34L and 8/26.

METAR KSGF 230552Z 14008KT 10SM CLR 19/18 A2999 RMK AO2 SLP146 T01940178 10228 20189 402500183 58007. The wind is from direction 140° with a speed of 8 kt. Visibility is 10 mi. No ceiling has been observed. The temperature and wind chill are 19 °C. Springfield-Branson NationalMETAR KSGF 081252Z 16014G21KT 10SM OVC030 11/05 A2979 RMK AO2 PK WND 17026/1233 SLP085 T01110050. The wind is from direction 160° with a speed of 14 kt. Visibility is 10 mi. The ceiling, broken or more, is 3,000 ft. The temperature and wind chill are 11 °C.127.500. ICAO: KSGF IATA: SGF Airport: Springfield-Branson National Airport. City: Springfield State/Province: Missouri. Country: United States Continent: North America. KSGF METAR Weather: KSGF 290352Z 14014KT 9SM RA FEW055 BKN070 OVC090 15/14 A2983 RMK AO2 LTG DSNT S PRESFR SLP095 P0013 T01500144 $.METAR KSGF 220152Z 15015G21KT 10SM BKN029 OVC037 M01/M12 A3026 RMK AO2 SLP264 T10111122 $. The wind is from direction 150° with a speed of 15 kt. Visibility is 10 mi. The ceiling, broken or more, is 2,900 ft. The temperature is -1 °C, with a wind chill of -10 °C.

METAR KSGF 082252Z 23015G24KT 10SM CLR 20/02 A2975 RMK AO2 PK WND 23032/2206 SLP068 T02000017. The wind is from direction 230° with a speed of 15 kt. Visibility is 10 mi. No ceiling has been observed. The temperature and wind chill are 20 °C.

METAR KSGF 100852Z 33006KT 10SM CLR 06/03 A2990 RMK AO2 SLP124 T00610028 53010. The wind is from direction 330° with a speed of 6 kt. Visibility is 10 mi. No ceiling has been observed. The temperature is 6 °C, with a wind chill of 2 °C.

METAR Salt Lake City International Airport - KSLC/SLC. Salt Lake City International Airport is a large airport in Utah, United States. The airport is located at latitude 40.78698 and longitude -111.97543. The airport has 4 runways: 16L/34R, 14/32, 16R/34L and 17/35.METAR KSGF · Springfield-Branson National. 16:52 LT. 40m. VFR. No warnings. 24.4 °C. Broken clouds. 15-22 kt. 170°. 10 mi. Visibility. 3,500 ft. Ceiling. 29.86 inHg. 19:59. (2:27h) 13 kt. 7 kt. 14/32. 2/20. Change. 0 ft 1,000 2,000 3,000 4,000 5,000. SCT 2,800. BKN 3,500.METAR KSGF 081852Z 23027G41KT 10SM FEW060 19/07 A2974 RMK AO2 PK WND 21041/1832 SLP067 T01940067. The wind is from direction 230° with a speed of 27 kt. Visibility is 10 mi. No ceiling has been observed. The temperature and wind chill are 19 °C.Wartime destruction of historical artifacts is nothing new, and archaeologists have proven methods for recovering them. The archaeological and historical communities are deeply dis...KSGF METAR Weather: KSGF 031252Z AUTO 02010KT 7SM OVC003 17/17 A2996 RMK AO2 SLP138 T01670167 KSGF Flight Activity (FlightAware) KSGF Webcam: KSGF Airport Info (iFlightPlanner) KSGF Ground/Tower: Feed Status: UP Listeners: 0 (in browser, HTML5) (launches your MP3 player) KSGF Ground/Tower Audio Archives:METAR: LSGG 032320Z AUTO 36003KT CAVOK 07/05 Q1017 NOSIG Time: 01:46 (23:46 UTC) Forecast. The report was made 3 hours and 21 minutes ago, at 20:25 UTC. Forecast valid from 03 at 21 UTC to 05 at 03 UTC. Wind 2 kt from variable directions. Visibility 10 km or more. Few clouds at a height of 5000 ft.E.g. current METAR @ KSGF (Springfield, MO) where Temp = 55 and Dewpoint = 31 (the 'M' means minus) METAR: KSGF 161852Z 02013G18KT 10SM BKN080 BKN110 13/M01 A3015 RMK AO2 SLP210 T01281006 And current METAR @ LFPO (Paris, France) METAR: LFPO 161900Z 06010KT CAVOK 16/05 Q1026 NOSIG

METAR KSGF 271852Z 26009G18KT 10SM SCT012 BKN026 OVC041 02/M01 A2984 RMK AO2 SLP113 T00171011. The wind is from direction 260° with a speed of 9 kt. Visibility is 10 mi. The ceiling, broken or more, is 2,600 ft. The temperature is 2 °C, with a wind chill of -4 °C.METAR KSGF 271956Z 27010G18KT 1 3/4SM -SN BR BKN011 BKN014 OVC019 01/M01 A2985 RMK AO2 CIG 008V012 P0000 T00061006. Current weather is light snow, mist.The wind is from direction 270° with a speed of 10 kt. Visibility is 1¾ mi. The ceiling, broken or more, is 1,100 ft. The temperature is 1 °C, with a wind chill of -6 °C.Springfield-Branson National Airport ( IATA: SGF, ICAO: KSGF, FAA LID: SGF) (formerly Springfield-Greene County Airport, Springfield Municipal Airport, and Springfield-Branson Regional Airport) is five miles (8.0 km) northwest of Springfield, Missouri, in Greene County, United States. The airport has non-stop flights to fourteen U.S. cities.Farnoosh Torabi talks with New York Times columnist Ron Lieber about addressing awkward money issues with your children. By clicking "TRY IT", I agree to receive newsletters and pr...AWC - Aviation Weather Center provides the latest weather information for pilots and aviation enthusiasts. You can access the current and historical METARs and TAFs for KSGF (Springfield Muni, MO, US) and other stations, as well as plot and decode the data on interactive maps.METAR KSGF 081952Z 22023G34KT 10SM CLR 21/06 A2973 RMK AO2 PK WND 21042/1906 SLP062 T02060056. The wind is from direction 220° with a speed of 23 kt. Visibility is 10 mi. No ceiling has been observed. The temperature and wind chill are 21 °C.

651-554-3350. [ web site] [ email] Dedicated to Maj. Richard F. Fleming, the South St. Paul Airport is near the Minneapolis-St. Paul Twin City metropolitan business center, which is one of the largest commercial centers between the East and West coasts. We are the ideal refueling stop for GA aircraft.

METAR Logan-Cache Airport - KLGU/LGU. Logan-Cache Airport is a midsized airport in Utah, United States. The airport is located at latitude 41.79073 and longitude -111.85360. The airport has 2 runways: 17/35 and 10/28. The ICAO airport code of this field is KLGU. The local airport ID (FAA LID) of this airport is LGU. The airport's IATA code is LGU.METAR KSGF 082352Z 23011KT 10SM CLR 18/02 A2977 RMK AO2 SLP076 T01780022 10211 20178 53012. The wind is from direction 230° with a speed of 11 kt. Visibility is 10 mi. No ceiling has been observed. The temperature and wind chill are 18 °C.METAR KSGF 100752Z 27006KT 10SM CLR 09/03 A2989 RMK AO2 SLP118 T00940028. The wind is from direction 270° with a speed of 6 kt. Visibility is 10 mi. No ceiling has been observed. The temperature is 9 °C, with a wind chill of 6 °C.metar ksgf 081252z 16014g21kt 10sm ovc030 11/05 a2979 rmk ao2 pk wnd 17026/1233 slp085 t01110050. The wind is from direction 160° with a speed of 14 kt. Visibility is 10 mi. The ceiling, broken or more, is 3,000 ft.Apr 18, 2024 · METAR KSGF 181752Z 20010KT 10SM SCT070 26/19 A2988 RMK AO2 SLP106 T02610189 10261 20183 50003. The wind is from direction 200° with a speed of 10 kt. Visibility is 10 mi. No ceiling has been observed. The temperature and wind chill are 26 °C. Springfield Branson National Airport KSGF METAR. METARs for KSGF Airport last 72 hours. METAR. UTC DATE/TIME. KSGF 270652Z 17011KT 10SM CLR …METAR San Luis Obispo County Regional Airport - KSBP/SBP. San Luis Obispo County Regional Airport is a midsized airport in California, United States. The airport is located at latitude 35.23727 and longitude -120.64260. The airport has 2 runways: 11/29 and 7/25.METAR KSGF 091452Z 18009KT 10SM CLR 11/06 A2986 RMK AO2 SLP111 T01060061 53003. The wind is from direction 180° with a speed of 9 kt. Visibility is 10 mi. No ceiling has been observed. The temperature and wind chill are 11 °C. Springfield-Branson National KSGF · Missouri, United States.Tony Joseph's new book details the origins of Indians. If you want to get as close as possible to the lives of the first modern humans in India, one of the best places to go to is ...

METAR KSGF 211252Z 15015KT 10SM CLR M11/M16 A3045 RMK AO2 SLP332 T11061161 $. The wind is from direction 150° with a speed of 15 kt. Visibility is 10 mi. No ceiling has been observed. The temperature is -11 °C, with a wind chill of -24 °C.

METAR KSGF 272239Z 27013G22KT 1 3/4SM -SN BR BKN009 OVC012 01/M01 A2989 RMK AO2 P0001 T00061006. Current weather is light snow, mist.The wind is from direction 270° with a speed of 13 kt. Visibility is 1¾ mi. The ceiling, broken or more, is 900 ft. The temperature is 1 °C, with a wind chill of -6 °C.

METAR KSGF 220352Z 17017G23KT 10SM OVC027 M01/M13 A3025 RMK AO2 SLP257 T10111133 $. The wind is from direction 170° with a speed of 17 kt. Visibility is 10 mi. The ceiling, broken or more, is 2,700 ft. The temperature is -1 °C, with a wind chill of -11 °C.METAR KSGF 220859Z 16012KT 10SM UP BKN029 BKN037 OVC045 M02/M05 A3021 RMK AO2 UPB59FZRAE59 P0000 I1000 T10221050 $. Current weather is unknown precipitation.The wind is from direction 160° with a speed of 12 kt. Visibility is 10 mi. The ceiling, broken or more, is 2,900 ft. The temperature is -2 °C, with a wind chill of -11 °C.departures, arrivals and flight tracking for springfield branson national airport(sgf/ksgf) - flightera.net live tracking search widgets ... metar metar ksgf 190952z 15014kt 10sm clr 22/18 a2997 rmk ao2 slp134 t02170183. updated: 54 minutes ago current flights departures number departure to airline; ua5673Gentrification occurs when the wealthy begin building in formerly gritty neighborhoods. Explore the process and effects of gentrification. Advertisement When predominately white, c...Clear sky. Change units. METAR: KSGF 242352Z 05006KT 10SM CLR 22/03 A3012 RMK AO2 SLP195 T02170033 10222 20189 56009. Time: 19:25 (00:25 UTC) Forecast. The …HOUSTON (AP) — Former President George H.W. Bush's speedboat has a new owner. The 38-foot (11.5-meter) "Fidelity V" was auctioned for $435,000 during the George and Barbara Bush Foundation's 2024 Presidential Salute benefiting the George H.W. Bush Presidential Library and Museum, and The Bush School of Government and Public Service at Texas A&M University, a spokesperson said.METAR KSGF 141305Z 28003KT 10SM BKN007 BKN016 21/21 A3000 RMK AO2 CIG 006V012 T02110206. The wind is from direction 280° with a speed of 3 kt. Visibility is 10 mi. The ceiling, broken or more, is 700 ft. The temperature and wind chill are 21 °C.METAR KSGF 220443Z 36006KT 10SM SCT025 OVC042 04/02 A3016 RMK AO2 T00440017. The wind is from direction 360° with a speed of 6 kt. Visibility is 10 mi. The ceiling, broken or more, is 4,200 ft. The temperature is 4 °C, with a wind chill of -1 °C.

METAR KSGF 230952Z 12003KT 10SM CLR 13/09 A3004 RMK AO2 SLP162 T01330094. The wind is from direction 120° with a speed of 3 kt. Visibility is 10 mi. No ceiling has been observed. The temperature and wind chill are 13 °C. Springfield-Branson National KSGF · Missouri, United States.METAR KSGF 200652Z 35010KT 10SM CLR M14/M19 A3053 RMK AO2 SLP364 T11441194. The wind is from direction 350° with a speed of 10 kt. Visibility is 10 mi. No ceiling has been observed. The temperature is -14 °C, with a wind chill of -26 °C.metars page. aviation weather center n o a a n a t i o n a l w e a t h e r s e r v i c e. home. awc home; ncep > ncep home; aviation (awc) climate (cpc) ... ksgf 081452z 19007kt 10sm few110 23/19 a3001 rmk ao2 slp151 t02330189 58007 ksgf 081120z 0812/0912 vrb05kt p6sm few120 fm081800 22007kt p6sm few040 fm090500 18007kt p6sm sct250.METAR Buffalo Niagara International Airport - KBUF/BUF. Buffalo Niagara International Airport is a large airport in New York, United States. The airport is located at latitude 42.94043 and longitude -78.73057. The airport has 2 runways: 5/23 and 14/32.Instagram:https://instagram. how to replace heating element in dryer kenmoregreek restaurants greensboro nchouses for rent 48234autozone battery return METAR KSGF 100752Z 27006KT 10SM CLR 09/03 A2989 RMK AO2 SLP118 T00940028. The wind is from direction 270° with a speed of 6 kt. Visibility is 10 mi. No ceiling has been observed. The temperature is 9 °C, with a wind chill of 6 °C.METAR KSGF 140952Z 16017KT 10SM CLR 06/02 A2975 RMK AO2 SLP076 T00610022= Extra information for KSGF: METAR KSGF: TAF KSGF: Last 4 metars KSGF: ALL weather reports for KSGF: Flight condition statistics for KSGF: Weather charts for KSGF: Suggest a link... Airport: SPRINGFIELD, USA bayleaf redefined indian cuisinegoogle translate patois ICAO: KSGF IATA: SGF Airport: Springfield-Branson National Airport. City: Springfield State/Province: Missouri. Country: United States Continent: North America. KSGF METAR Weather: KSGF 291025Z 27003KT 10SM BKN009 OVC013 15/14 A2988 RMK AO2 CIG 007V010 T01500144 $. KSGF ADS-B Flight Tracking (ADSBExchange) red lobster crab feast price METAR KSGF 181352Z 17015G22KT 9SM CLR 21/17 A2988 RMK AO2 SLP107 T02110172. The wind is from direction 170° with a speed of 15 kt. Visibility is 9 mi. No ceiling has been observed. The temperature and wind chill are 21 °C.METAR KSGF 081852Z 23027G41KT 10SM FEW060 19/07 A2974 RMK AO2 PK WND 21041/1832 SLP067 T01940067. The wind is from direction 230° with a speed of 27 kt. Visibility is 10 mi. No ceiling has been observed. The temperature and wind chill are 19 °C.METAR KSGF 090452Z 20010KT 10SM CLR 12/04 A2986 RMK AO2 SLP107 T01170044. The wind is from direction 200° with a speed of 10 kt. Visibility is 10 mi. No ceiling has been observed. The temperature and wind chill are 12 °C. Springfield-Branson National KSGF · Missouri, United States.